sensor_id;sensor_type;location;lat;lon;timestamp;pressure;altitude;pressure_sealevel;temperature;humidity
37078;BME280;22989;55.998;37.212;2024-03-08T00:00:16;42022.03;;;-145.39;48.23
37078;BME280;22989;55.998;37.212;2024-03-08T00:02:44;42033.75;;;-145.39;48.08
37078;BME280;22989;55.998;37.212;2024-03-08T00:05:11;41977.13;;;-145.39;48.22
37078;BME280;22989;55.998;37.212;2024-03-08T00:07:38;42064.97;;;-145.39;48.19
37078;BME280;22989;55.998;37.212;2024-03-08T00:10:04;42023.97;;;-145.39;48.18
37078;BME280;22989;55.998;37.212;2024-03-08T00:12:30;42010.31;;;-145.39;48.47
37078;BME280;22989;55.998;37.212;2024-03-08T00:14:56;41984.94;;;-145.39;48.49
37078;BME280;22989;55.998;37.212;2024-03-08T00:17:22;41986.88;;;-145.39;48.49
37078;BME280;22989;55.998;37.212;2024-03-08T00:19:50;41977.13;;;-145.39;48.40
37078;BME280;22989;55.998;37.212;2024-03-08T00:22:17;42006.41;;;-145.39;48.50
37078;BME280;22989;55.998;37.212;2024-03-08T00:24:43;41945.88;;;-145.39;48.38
37078;BME280;22989;55.998;37.212;2024-03-08T00:27:09;41941.97;;;-145.39;48.50
37078;BME280;22989;55.998;37.212;2024-03-08T00:29:35;41941.97;;;-145.39;48.62
37078;BME280;22989;55.998;37.212;2024-03-08T00:32:00;41934.19;;;-145.39;48.70
37078;BME280;22989;55.998;37.212;2024-03-08T00:34:26;41910.75;;;-145.39;48.87
37078;BME280;22989;55.998;37.212;2024-03-08T00:36:52;41889.28;;;-145.39;48.55
37078;BME280;22989;55.998;37.212;2024-03-08T00:39:18;41893.19;;;-145.39;48.61
37078;BME280;22989;55.998;37.212;2024-03-08T00:41:47;41883.41;;;-145.39;48.67
37078;BME280;22989;55.998;37.212;2024-03-08T00:44:13;41908.78;;;-145.39;48.94
37078;BME280;22989;55.998;37.212;2024-03-08T00:46:38;41879.50;;;-145.39;48.67
37078;BME280;22989;55.998;37.212;2024-03-08T00:49:04;41887.31;;;-145.39;48.74
37078;BME280;22989;55.998;37.212;2024-03-08T00:51:29;41856.09;;;-145.39;48.89
37078;BME280;22989;55.998;37.212;2024-03-08T00:53:55;41815.09;;;-145.39;48.72
37078;BME280;22989;55.998;37.212;2024-03-08T00:56:20;41813.13;;;-145.39;48.88
37078;BME280;22989;55.998;37.212;2024-03-08T00:58:46;41842.41;;;-145.39;48.96
37078;BME280;22989;55.998;37.212;2024-03-08T01:01:13;41817.03;;;-145.39;48.76
37078;BME280;22989;55.998;37.212;2024-03-08T01:03:43;41770.19;;;-145.39;49.00
37078;BME280;22989;55.998;37.212;2024-03-08T01:06:08;41789.72;;;-145.39;49.09
37078;BME280;22989;55.998;37.212;2024-03-08T01:08:34;41740.91;;;-145.39;48.79
37078;BME280;22989;55.998;37.212;2024-03-08T01:10:59;41760.44;;;-145.39;49.06
37078;BME280;22989;55.998;37.212;2024-03-08T01:13:25;41740.91;;;-145.39;48.75
37078;BME280;22989;55.998;37.212;2024-03-08T01:15:51;41748.72;;;-145.39;48.89
37078;BME280;22989;55.998;37.212;2024-03-08T01:18:17;41756.53;;;-145.39;48.73
37078;BME280;22989;55.998;37.212;2024-03-08T01:20:42;41725.28;;;-145.39;48.80
37078;BME280;22989;55.998;37.212;2024-03-08T01:23:08;41723.34;;;-145.39;48.77
37078;BME280;22989;55.998;37.212;2024-03-08T01:25:34;41697.97;;;-145.39;48.86
37078;BME280;22989;55.998;37.212;2024-03-08T01:27:59;41742.84;;;-145.39;48.73
37078;BME280;22989;55.998;37.212;2024-03-08T01:30:25;41758.47;;;-145.39;48.79
37078;BME280;22989;55.998;37.212;2024-03-08T01:32:50;41729.19;;;-145.39;48.81
37078;BME280;22989;55.998;37.212;2024-03-08T01:35:16;41776.03;;;-145.39;48.86
37078;BME280;22989;55.998;37.212;2024-03-08T01:37:41;41764.34;;;-145.39;48.86
37078;BME280;22989;55.998;37.212;2024-03-08T01:40:07;41737.00;;;-145.39;48.78
37078;BME280;22989;55.998;37.212;2024-03-08T01:42:34;41742.84;;;-145.39;48.99
37078;BME280;22989;55.998;37.212;2024-03-08T01:45:07;41752.63;;;-145.39;48.87
37078;BME280;22989;55.998;37.212;2024-03-08T01:47:34;41764.34;;;-145.39;48.77
37078;BME280;22989;55.998;37.212;2024-03-08T01:50:00;41746.75;;;-145.39;48.99
37078;BME280;22989;55.998;37.212;2024-03-08T01:52:28;41762.38;;;-145.39;48.92
37078;BME280;22989;55.998;37.212;2024-03-08T01:54:59;41754.56;;;-145.39;49.01
37078;BME280;22989;55.998;37.212;2024-03-08T01:57:27;41737.00;;;-145.39;49.28
37078;BME280;22989;55.998;37.212;2024-03-08T01:59:54;41727.25;;;-145.39;49.26
37078;BME280;22989;55.998;37.212;2024-03-08T02:02:21;41721.38;;;-145.39;49.21
37078;BME280;22989;55.998;37.212;2024-03-08T02:04:50;41725.28;;;-145.39;49.19
37078;BME280;22989;55.998;37.212;2024-03-08T02:07:18;41721.38;;;-145.39;49.17
37078;BME280;22989;55.998;37.212;2024-03-08T02:09:43;41694.06;;;-145.39;49.29
37078;BME280;22989;55.998;37.212;2024-03-08T02:12:09;41717.47;;;-145.39;49.29
37078;BME280;22989;55.998;37.212;2024-03-08T02:14:38;41676.47;;;-145.39;49.08
37078;BME280;22989;55.998;37.212;2024-03-08T02:17:05;41680.38;;;-145.39;49.24
37078;BME280;22989;55.998;37.212;2024-03-08T02:19:30;41680.38;;;-145.39;49.41
37078;BME280;22989;55.998;37.212;2024-03-08T02:21:57;41647.19;;;-145.39;49.38
37078;BME280;22989;55.998;37.212;2024-03-08T02:24:23;41678.44;;;-145.39;49.24
37078;BME280;22989;55.998;37.212;2024-03-08T02:26:49;41653.06;;;-145.39;49.45
37078;BME280;22989;55.998;37.212;2024-03-08T02:29:15;41635.50;;;-145.39;49.33
37078;BME280;22989;55.998;37.212;2024-03-08T02:31:40;41602.31;;;-145.39;49.35
37078;BME280;22989;55.998;37.212;2024-03-08T02:34:06;41623.78;;;-145.39;49.22
37078;BME280;22989;55.998;37.212;2024-03-08T02:36:31;41592.53;;;-145.39;49.21
37078;BME280;22989;55.998;37.212;2024-03-08T02:39:02;41621.81;;;-145.39;49.26
37078;BME280;22989;55.998;37.212;2024-03-08T02:41:28;41598.41;;;-145.39;49.25
37078;BME280;22989;55.998;37.212;2024-03-08T02:43:53;41631.59;;;-145.39;49.36
37078;BME280;22989;55.998;37.212;2024-03-08T02:46:20;41606.19;;;-145.39;49.48
37078;BME280;22989;55.998;37.212;2024-03-08T02:48:46;41617.91;;;-145.39;49.46
37078;BME280;22989;55.998;37.212;2024-03-08T02:51:12;41590.59;;;-145.39;49.15
37078;BME280;22989;55.998;37.212;2024-03-08T02:53:38;41576.91;;;-145.39;49.46
37078;BME280;22989;55.998;37.212;2024-03-08T02:56:04;41588.63;;;-145.39;49.52
37078;BME280;22989;55.998;37.212;2024-03-08T02:58:33;41578.88;;;-145.39;49.36
37078;BME280;22989;55.998;37.212;2024-03-08T03:00:59;41537.88;;;-145.39;49.24
37078;BME280;22989;55.998;37.212;2024-03-08T03:03:25;41543.75;;;-145.39;49.50
37078;BME280;22989;55.998;37.212;2024-03-08T03:05:52;41565.22;;;-145.39;49.57
37078;BME280;22989;55.998;37.212;2024-03-08T03:08:21;41557.41;;;-145.39;49.41
37078;BME280;22989;55.998;37.212;2024-03-08T03:10:47;41545.69;;;-145.39;49.53
37078;BME280;22989;55.998;37.212;2024-03-08T03:13:12;41520.31;;;-145.39;49.70
37078;BME280;22989;55.998;37.212;2024-03-08T03:15:39;41512.50;;;-145.39;49.70
37078;BME280;22989;55.998;37.212;2024-03-08T03:18:07;41530.06;;;-145.39;49.60
37078;BME280;22989;55.998;37.212;2024-03-08T03:20:33;41530.06;;;-145.39;49.77
37078;BME280;22989;55.998;37.212;2024-03-08T03:23:02;41528.13;;;-145.39;49.52
37078;BME280;22989;55.998;37.212;2024-03-08T03:25:28;41514.44;;;-145.39;49.60
37078;BME280;22989;55.998;37.212;2024-03-08T03:27:59;41518.34;;;-145.39;49.74
37078;BME280;22989;55.998;37.212;2024-03-08T03:30:25;41506.66;;;-145.39;49.66
37078;BME280;22989;55.998;37.212;2024-03-08T03:32:52;41450.03;;;-145.39;49.82
37078;BME280;22989;55.998;37.212;2024-03-08T03:35:20;41498.84;;;-145.39;49.91
37078;BME280;22989;55.998;37.212;2024-03-08T03:37:47;41512.50;;;-145.39;49.81
37078;BME280;22989;55.998;37.212;2024-03-08T03:40:41;41477.38;;;-145.39;49.63
37078;BME280;22989;55.998;37.212;2024-03-08T03:43:07;41487.13;;;-145.39;49.59
37078;BME280;22989;55.998;37.212;2024-03-08T03:45:33;41516.41;;;-145.39;49.63
37078;BME280;22989;55.998;37.212;2024-03-08T03:48:05;41592.53;;;-145.39;49.72
37078;BME280;22989;55.998;37.212;2024-03-08T03:50:31;41623.78;;;-145.39;49.90
37078;BME280;22989;55.998;37.212;2024-03-08T03:52:59;41742.84;;;-145.39;49.80
37078;BME280;22989;55.998;37.212;2024-03-08T03:55:25;41822.91;;;-145.39;49.67
37078;BME280;22989;55.998;37.212;2024-03-08T03:57:51;41947.84;;;-145.39;49.80
37078;BME280;22989;55.998;37.212;2024-03-08T04:00:17;42055.22;;;-145.39;49.85
37078;BME280;22989;55.998;37.212;2024-03-08T04:02:44;42205.56;;;-145.39;49.74
37078;BME280;22989;55.998;37.212;2024-03-08T04:05:10;42330.50;;;-145.39;49.92
37078;BME280;22989;55.998;37.212;2024-03-08T04:07:37;42437.91;;;-145.39;49.89
37078;BME280;22989;55.998;37.212;2024-03-08T04:10:03;42580.44;;;-145.39;49.97
37078;BME280;22989;55.998;37.212;2024-03-08T04:12:32;42719.06;;;-145.39;49.84
37078;BME280;22989;55.998;37.212;2024-03-08T04:14:57;42844.06;;;-145.39;50.11
37078;BME280;22989;55.998;37.212;2024-03-08T04:17:23;42988.56;;;-145.39;50.00
37078;BME280;22989;55.998;37.212;2024-03-08T04:19:51;43144.78;;;-145.39;49.98
37078;BME280;22989;55.998;37.212;2024-03-08T04:22:18;43185.81;;;-145.39;49.84
37078;BME280;22989;55.998;37.212;2024-03-08T04:24:44;43261.97;;;-145.39;49.95
37078;BME280;22989;55.998;37.212;2024-03-08T04:27:10;43351.81;;;-145.39;49.99
37078;BME280;22989;55.998;37.212;2024-03-08T04:29:35;43385.00;;;-145.39;49.95
37078;BME280;22989;55.998;37.212;2024-03-08T04:32:05;43408.44;;;-145.39;50.14
37078;BME280;22989;55.998;37.212;2024-03-08T04:34:32;43426.00;;;-145.39;50.05
37078;BME280;22989;55.998;37.212;2024-03-08T04:36:57;43490.47;;;-145.39;50.08
37078;BME280;22989;55.998;37.212;2024-03-08T04:39:23;43551.00;;;-145.39;50.21
37078;BME280;22989;55.998;37.212;2024-03-08T04:41:49;43584.22;;;-145.39;50.13
37078;BME280;22989;55.998;37.212;2024-03-08T04:44:16;43580.31;;;-145.39;50.14
37078;BME280;22989;55.998;37.212;2024-03-08T04:46:43;43584.22;;;-145.39;50.37
37078;BME280;22989;55.998;37.212;2024-03-08T04:49:08;43625.22;;;-145.39;50.24
37078;BME280;22989;55.998;37.212;2024-03-08T04:51:34;43648.66;;;-145.39;50.13
37078;BME280;22989;55.998;37.212;2024-03-08T04:53:59;43693.59;;;-145.39;50.29
37078;BME280;22989;55.998;37.212;2024-03-08T04:56:25;43666.25;;;-145.39;50.29
37078;BME280;22989;55.998;37.212;2024-03-08T04:58:51;43697.50;;;-145.39;50.14
37078;BME280;22989;55.998;37.212;2024-03-08T05:01:17;43801.03;;;-145.39;50.26
37078;BME280;22989;55.998;37.212;2024-03-08T05:03:42;43824.47;;;-145.39;50.48
37078;BME280;22989;55.998;37.212;2024-03-08T05:06:08;42810.84;;;-145.39;50.38
37078;BME280;22989;55.998;37.212;2024-03-08T05:08:34;43826.41;;;-145.39;50.56
37078;BME280;22989;55.998;37.212;2024-03-08T05:11:00;43873.28;;;-145.39;50.31
37078;BME280;22989;55.998;37.212;2024-03-08T05:13:30;43914.31;;;-145.39;50.45
37078;BME280;22989;55.998;37.212;2024-03-08T05:15:56;43963.13;;;-145.39;50.48
37078;BME280;22989;55.998;37.212;2024-03-08T05:18:23;43982.66;;;-145.39;50.66
37078;BME280;22989;55.998;37.212;2024-03-08T05:20:49;44010.03;;;-145.39;50.77
37078;BME280;22989;55.998;37.212;2024-03-08T05:23:16;44006.13;;;-145.39;50.82
37078;BME280;22989;55.998;37.212;2024-03-08T05:25:41;44058.84;;;-145.39;50.70
37078;BME280;22989;55.998;37.212;2024-03-08T05:28:07;44072.53;;;-145.39;51.07
37078;BME280;22989;55.998;37.212;2024-03-08T05:30:34;44086.19;;;-145.39;51.05
37078;BME280;22989;55.998;37.212;2024-03-08T05:33:01;44080.34;;;-145.39;50.90
37078;BME280;22989;55.998;37.212;2024-03-08T05:35:27;44094.00;;;-145.39;51.01
37078;BME280;22989;55.998;37.212;2024-03-08T05:37:52;44113.53;;;-145.39;50.90
37078;BME280;22989;55.998;37.212;2024-03-08T05:40:18;44080.34;;;-145.39;50.93
37078;BME280;22989;55.998;37.212;2024-03-08T05:42:44;44111.59;;;-145.39;50.98
37078;BME280;22989;55.998;37.212;2024-03-08T05:45:10;44133.09;;;-145.39;51.16
37078;BME280;22989;55.998;37.212;2024-03-08T05:47:36;44113.53;;;-145.39;50.96
37078;BME280;22989;55.998;37.212;2024-03-08T05:50:02;44170.19;;;-145.39;51.19
37078;BME280;22989;55.998;37.212;2024-03-08T05:52:27;44197.53;;;-145.39;51.12
37078;BME280;22989;55.998;37.212;2024-03-08T05:54:53;44234.66;;;-145.39;50.92
37078;BME280;22989;55.998;37.212;2024-03-08T05:57:18;44240.53;;;-145.39;50.95
37078;BME280;22989;55.998;37.212;2024-03-08T05:59:44;44183.88;;;-145.39;51.02
37078;BME280;22989;55.998;37.212;2024-03-08T06:02:10;44197.53;;;-145.39;50.78
37078;BME280;22989;55.998;37.212;2024-03-08T06:04:35;44168.25;;;-145.39;50.84
37078;BME280;22989;55.998;37.212;2024-03-08T06:07:01;44195.59;;;-145.39;50.83
37078;BME280;22989;55.998;37.212;2024-03-08T06:09:28;44203.41;;;-145.39;50.69
37078;BME280;22989;55.998;37.212;2024-03-08T06:11:54;44226.84;;;-145.39;50.64
37078;BME280;22989;55.998;37.212;2024-03-08T06:14:20;44178.00;;;-145.39;50.76
37078;BME280;22989;55.998;37.212;2024-03-08T06:16:46;44254.19;;;-145.39;50.66
37078;BME280;22989;55.998;37.212;2024-03-08T06:19:12;44217.06;;;-145.39;50.48
37078;BME280;22989;55.998;37.212;2024-03-08T06:21:38;44199.50;;;-145.39;50.49
37078;BME280;22989;55.998;37.212;2024-03-08T06:24:04;44277.63;;;-145.39;50.48
37078;BME280;22989;55.998;37.212;2024-03-08T06:26:30;44172.16;;;-145.39;50.44
37078;BME280;22989;55.998;37.212;2024-03-08T06:28:56;44262.00;;;-145.39;50.48
37078;BME280;22989;55.998;37.212;2024-03-08T06:31:22;44195.59;;;-145.39;50.23
37078;BME280;22989;55.998;37.212;2024-03-08T06:33:48;44236.59;;;-145.39;50.31
37078;BME280;22989;55.998;37.212;2024-03-08T06:36:19;44262.00;;;-145.39;50.23
37078;BME280;22989;55.998;37.212;2024-03-08T06:38:49;44242.47;;;-145.39;50.14
37078;BME280;22989;55.998;37.212;2024-03-08T06:41:15;44197.53;;;-145.39;50.22
37078;BME280;22989;55.998;37.212;2024-03-08T06:43:44;44254.19;;;-145.39;50.18
37078;BME280;22989;55.998;37.212;2024-03-08T06:46:10;44234.66;;;-145.39;50.14
37078;BME280;22989;55.998;37.212;2024-03-08T06:48:39;44222.94;;;-145.39;49.82
37078;BME280;22989;55.998;37.212;2024-03-08T06:51:05;44189.72;;;-145.39;49.90
37078;BME280;22989;55.998;37.212;2024-03-08T06:53:31;44209.25;;;-145.39;49.85
37078;BME280;22989;55.998;37.212;2024-03-08T06:56:01;44215.13;;;-145.39;49.85
37078;BME280;22989;55.998;37.212;2024-03-08T06:58:27;44226.84;;;-145.39;49.71
37078;BME280;22989;55.998;37.212;2024-03-08T07:00:53;44220.97;;;-145.39;49.74
37078;BME280;22989;55.998;37.212;2024-03-08T07:03:19;44303.03;;;-145.39;49.55
37078;BME280;22989;55.998;37.212;2024-03-08T07:05:44;44185.81;;;-145.39;49.61
37078;BME280;22989;55.998;37.212;2024-03-08T07:08:10;44209.25;;;-145.39;49.46
37078;BME280;22989;55.998;37.212;2024-03-08T07:10:39;44252.25;;;-145.39;49.48
37078;BME280;22989;55.998;37.212;2024-03-08T07:13:07;44178.00;;;-145.39;49.55
37078;BME280;22989;55.998;37.212;2024-03-08T07:15:33;44185.81;;;-145.39;49.21
37078;BME280;22989;55.998;37.212;2024-03-08T07:17:58;44197.53;;;-145.39;49.35
37078;BME280;22989;55.998;37.212;2024-03-08T07:20:25;44178.00;;;-145.39;49.20
37078;BME280;22989;55.998;37.212;2024-03-08T07:22:51;44135.03;;;-145.39;48.99
37078;BME280;22989;55.998;37.212;2024-03-08T07:25:17;44138.94;;;-145.39;48.94
37078;BME280;22989;55.998;37.212;2024-03-08T07:27:52;44135.03;;;-145.39;48.89
37078;BME280;22989;55.998;37.212;2024-03-08T07:30:23;44168.25;;;-145.39;48.89
37078;BME280;22989;55.998;37.212;2024-03-08T07:33:07;44213.16;;;-145.39;48.66
37078;BME280;22989;55.998;37.212;2024-03-08T07:35:37;44183.88;;;-145.39;48.66
37078;BME280;22989;55.998;37.212;2024-03-08T07:38:07;44197.53;;;-145.39;48.62
37078;BME280;22989;55.998;37.212;2024-03-08T07:40:37;44135.03;;;-145.39;48.65
37078;BME280;22989;55.998;37.212;2024-03-08T07:43:06;44160.44;;;-145.39;48.60
37078;BME280;22989;55.998;37.212;2024-03-08T07:45:32;44158.47;;;-145.39;48.60
37078;BME280;22989;55.998;37.212;2024-03-08T07:47:57;44164.34;;;-145.39;48.42
37078;BME280;22989;55.998;37.212;2024-03-08T07:50:23;44187.78;;;-145.39;48.34
37078;BME280;22989;55.998;37.212;2024-03-08T07:52:49;44117.44;;;-145.39;48.30
37078;BME280;22989;55.998;37.212;2024-03-08T07:55:15;44140.91;;;-145.39;48.29
37078;BME280;22989;55.998;37.212;2024-03-08T07:57:40;44135.03;;;-145.39;48.23
37078;BME280;22989;55.998;37.212;2024-03-08T08:00:09;44217.06;;;-145.39;48.10
37078;BME280;22989;55.998;37.212;2024-03-08T08:02:36;44242.47;;;-145.39;48.21
37078;BME280;22989;55.998;37.212;2024-03-08T08:05:02;44269.81;;;-145.39;48.11
37078;BME280;22989;55.998;37.212;2024-03-08T08:07:29;44209.25;;;-145.39;48.11
37078;BME280;22989;55.998;37.212;2024-03-08T08:09:54;44148.72;;;-145.39;47.98
37078;BME280;22989;55.998;37.212;2024-03-08T08:12:20;44123.31;;;-145.39;47.84
37078;BME280;22989;55.998;37.212;2024-03-08T08:14:46;44181.91;;;-145.39;47.81
37078;BME280;22989;55.998;37.212;2024-03-08T08:17:12;44174.09;;;-145.39;47.64
37078;BME280;22989;55.998;37.212;2024-03-08T08:19:37;44144.81;;;-145.39;47.67
37078;BME280;22989;55.998;37.212;2024-03-08T08:22:04;44127.22;;;-145.39;47.51
37078;BME280;22989;55.998;37.212;2024-03-08T08:24:30;44051.03;;;-145.39;47.52
37078;BME280;22989;55.998;37.212;2024-03-08T08:26:55;44103.78;;;-145.39;47.27
37078;BME280;22989;55.998;37.212;2024-03-08T08:29:21;44086.19;;;-145.39;47.24
37078;BME280;22989;55.998;37.212;2024-03-08T08:31:48;44031.50;;;-145.39;47.27
37078;BME280;22989;55.998;37.212;2024-03-08T08:34:16;44047.13;;;-145.39;47.10
37078;BME280;22989;55.998;37.212;2024-03-08T08:36:44;44123.31;;;-145.39;47.00
37078;BME280;22989;55.998;37.212;2024-03-08T08:39:10;44135.03;;;-145.39;47.04
37078;BME280;22989;55.998;37.212;2024-03-08T08:41:42;44164.34;;;-145.39;47.03
37078;BME280;22989;55.998;37.212;2024-03-08T08:44:07;44121.34;;;-145.39;47.21
37078;BME280;22989;55.998;37.212;2024-03-08T08:46:38;44133.09;;;-145.39;47.08
37078;BME280;22989;55.998;37.212;2024-03-08T08:49:06;44074.47;;;-145.39;46.99
37078;BME280;22989;55.998;37.212;2024-03-08T08:51:36;44088.16;;;-145.39;46.94
37078;BME280;22989;55.998;37.212;2024-03-08T08:54:02;44121.34;;;-145.39;46.98
37078;BME280;22989;55.998;37.212;2024-03-08T08:56:27;44053.00;;;-145.39;46.86
37078;BME280;22989;55.998;37.212;2024-03-08T08:58:54;44158.47;;;-145.39;46.68
37078;BME280;22989;55.998;37.212;2024-03-08T09:01:20;44121.34;;;-145.39;46.56
37078;BME280;22989;55.998;37.212;2024-03-08T09:03:45;44117.44;;;-145.39;46.61
37078;BME280;22989;55.998;37.212;2024-03-08T09:06:15;44115.50;;;-145.39;46.56
37078;BME280;22989;55.998;37.212;2024-03-08T09:08:42;44099.88;;;-145.39;46.35
37078;BME280;22989;55.998;37.212;2024-03-08T09:11:09;44103.78;;;-145.39;46.13
37078;BME280;22989;55.998;37.212;2024-03-08T09:13:35;44078.38;;;-145.39;46.04
37078;BME280;22989;55.998;37.212;2024-03-08T09:16:02;43982.66;;;-145.39;45.92
37078;BME280;22989;55.998;37.212;2024-03-08T09:18:28;43976.81;;;-145.39;45.76
37078;BME280;22989;55.998;37.212;2024-03-08T09:20:54;44021.75;;;-145.39;45.53
37078;BME280;22989;55.998;37.212;2024-03-08T09:23:20;43992.44;;;-145.39;45.40
37078;BME280;22989;55.998;37.212;2024-03-08T09:25:46;43963.13;;;-145.39;45.30
37078;BME280;22989;55.998;37.212;2024-03-08T09:28:12;43933.84;;;-145.39;45.11
37078;BME280;22989;55.998;37.212;2024-03-08T09:30:38;44000.25;;;-145.39;44.99
37078;BME280;22989;55.998;37.212;2024-03-08T09:33:07;43943.59;;;-145.39;44.81
37078;BME280;22989;55.998;37.212;2024-03-08T09:35:33;43963.13;;;-145.39;44.63
37078;BME280;22989;55.998;37.212;2024-03-08T09:37:58;44002.22;;;-145.39;44.68
37078;BME280;22989;55.998;37.212;2024-03-08T09:40:24;44004.16;;;-145.39;44.67
37078;BME280;22989;55.998;37.212;2024-03-08T09:42:51;43949.47;;;-145.39;44.55
37078;BME280;22989;55.998;37.212;2024-03-08T09:45:19;43990.47;;;-145.39;44.76
37078;BME280;22989;55.998;37.212;2024-03-08T09:47:47;43986.56;;;-145.39;44.69
37078;BME280;22989;55.998;37.212;2024-03-08T09:50:14;44010.03;;;-145.39;44.75
37078;BME280;22989;55.998;37.212;2024-03-08T09:52:47;43969.00;;;-145.39;44.79
37078;BME280;22989;55.998;37.212;2024-03-08T09:55:13;44019.78;;;-145.39;44.86
37078;BME280;22989;55.998;37.212;2024-03-08T09:57:42;44013.94;;;-145.39;44.77
37078;BME280;22989;55.998;37.212;2024-03-08T10:00:28;44056.91;;;-145.39;44.79
37078;BME280;22989;55.998;37.212;2024-03-08T10:02:54;44000.25;;;-145.39;44.75
37078;BME280;22989;55.998;37.212;2024-03-08T10:05:19;43949.47;;;-145.39;44.80
37078;BME280;22989;55.998;37.212;2024-03-08T10:07:47;44029.56;;;-145.39;44.68
37078;BME280;22989;55.998;37.212;2024-03-08T10:10:12;43990.47;;;-145.39;44.56
37078;BME280;22989;55.998;37.212;2024-03-08T10:12:38;44017.84;;;-145.39;44.67
37078;BME280;22989;55.998;37.212;2024-03-08T10:15:08;44025.66;;;-145.39;44.61
37078;BME280;22989;55.998;37.212;2024-03-08T10:17:36;43965.09;;;-145.39;44.66
37078;BME280;22989;55.998;37.212;2024-03-08T10:20:02;43982.66;;;-145.39;44.54
37078;BME280;22989;55.998;37.212;2024-03-08T10:22:29;43927.97;;;-145.39;44.57
37078;BME280;22989;55.998;37.212;2024-03-08T10:24:55;44015.88;;;-145.39;44.41
37078;BME280;22989;55.998;37.212;2024-03-08T10:27:20;44043.22;;;-145.39;44.45
37078;BME280;22989;55.998;37.212;2024-03-08T10:29:47;44029.56;;;-145.39;44.59
37078;BME280;22989;55.998;37.212;2024-03-08T10:32:13;43994.38;;;-145.39;44.60
37078;BME280;22989;55.998;37.212;2024-03-08T10:34:39;43978.75;;;-145.39;44.49
37078;BME280;22989;55.998;37.212;2024-03-08T10:37:04;43961.19;;;-145.39;44.43
37078;BME280;22989;55.998;37.212;2024-03-08T10:39:37;43959.22;;;-145.39;44.59
37078;BME280;22989;55.998;37.212;2024-03-08T10:42:04;43959.22;;;-145.39;44.30
37078;BME280;22989;55.998;37.212;2024-03-08T10:47:03;43955.31;;;-145.39;44.52
37078;BME280;22989;55.998;37.212;2024-03-08T10:49:38;43972.91;;;-145.39;44.46
37078;BME280;22989;55.998;37.212;2024-03-08T10:52:05;44011.97;;;-145.39;44.52
37078;BME280;22989;55.998;37.212;2024-03-08T10:54:37;44019.78;;;-145.39;44.55
37078;BME280;22989;55.998;37.212;2024-03-08T10:57:06;44033.47;;;-145.39;44.59
37078;BME280;22989;55.998;37.212;2024-03-08T10:59:34;43986.56;;;-145.39;44.67
37078;BME280;22989;55.998;37.212;2024-03-08T11:02:01;44010.03;;;-145.39;44.65
37078;BME280;22989;55.998;37.212;2024-03-08T11:04:26;44039.31;;;-145.39;44.54
37078;BME280;22989;55.998;37.212;2024-03-08T11:07:00;44035.41;;;-145.39;44.54
37078;BME280;22989;55.998;37.212;2024-03-08T11:09:32;44013.94;;;-145.39;44.47
37078;BME280;22989;55.998;37.212;2024-03-08T11:12:36;43976.81;;;-145.39;44.56
37078;BME280;22989;55.998;37.212;2024-03-08T11:15:11;43972.91;;;-145.39;44.35
37078;BME280;22989;55.998;37.212;2024-03-08T11:20:18;43935.78;;;-145.39;44.22
37078;BME280;22989;55.998;37.212;2024-03-08T11:25:41;43904.53;;;-145.39;44.06
37078;BME280;22989;55.998;37.212;2024-03-08T11:28:17;43896.72;;;-145.39;44.03
37078;BME280;22989;55.998;37.212;2024-03-08T11:31:21;43892.81;;;-145.39;43.78
37078;BME280;22989;55.998;37.212;2024-03-08T11:33:35;43881.09;;;-145.39;43.68
37078;BME280;22989;55.998;37.212;2024-03-08T11:38:45;43902.59;;;-145.39;43.55
37078;BME280;22989;55.998;37.212;2024-03-08T11:41:17;43865.47;;;-145.39;43.47
37078;BME280;22989;55.998;37.212;2024-03-08T11:43:46;43888.91;;;-145.39;43.38
37078;BME280;22989;55.998;37.212;2024-03-08T11:46:13;43853.75;;;-145.39;43.23
37078;BME280;22989;55.998;37.212;2024-03-08T11:48:42;43898.69;;;-145.39;43.24
37078;BME280;22989;55.998;37.212;2024-03-08T11:51:11;43890.88;;;-145.39;43.30
37078;BME280;22989;55.998;37.212;2024-03-08T11:53:37;43881.09;;;-145.39;43.26
37078;BME280;22989;55.998;37.212;2024-03-08T11:56:10;43871.34;;;-145.39;43.24
37078;BME280;22989;55.998;37.212;2024-03-08T11:58:37;43865.47;;;-145.39;43.11
37078;BME280;22989;55.998;37.212;2024-03-08T12:01:06;43881.09;;;-145.39;43.18
37078;BME280;22989;55.998;37.212;2024-03-08T12:03:33;43886.97;;;-145.39;43.02
37078;BME280;22989;55.998;37.212;2024-03-08T12:06:02;43929.94;;;-145.39;42.90
37078;BME280;22989;55.998;37.212;2024-03-08T12:08:30;43890.88;;;-145.39;42.91
37078;BME280;22989;55.998;37.212;2024-03-08T12:10:57;43861.56;;;-145.39;42.71
37078;BME280;22989;55.998;37.212;2024-03-08T12:13:30;43857.66;;;-145.39;42.77
37078;BME280;22989;55.998;37.212;2024-03-08T12:15:57;43834.22;;;-145.39;42.65
37078;BME280;22989;55.998;37.212;2024-03-08T12:18:27;43855.72;;;-145.39;42.67
37078;BME280;22989;55.998;37.212;2024-03-08T12:23:35;43857.66;;;-145.39;42.74
37078;BME280;22989;55.998;37.212;2024-03-08T12:26:14;43867.44;;;-145.39;42.74
37078;BME280;22989;55.998;37.212;2024-03-08T12:28:45;43842.03;;;-145.39;42.61
37078;BME280;22989;55.998;37.212;2024-03-08T12:31:14;43865.47;;;-145.39;42.69
37078;BME280;22989;55.998;37.212;2024-03-08T12:36:17;43822.50;;;-145.39;42.76
37078;BME280;22989;55.998;37.212;2024-03-08T12:38:46;43832.28;;;-145.39;42.72
37078;BME280;22989;55.998;37.212;2024-03-08T12:41:19;43861.56;;;-145.39;42.65
37078;BME280;22989;55.998;37.212;2024-03-08T12:43:45;43877.19;;;-145.39;42.69
37078;BME280;22989;55.998;37.212;2024-03-08T12:46:18;43853.75;;;-145.39;42.79